sensor_id;sensor_type;location;lat;lon;timestamp;pressure;altitude;pressure_sealevel;temperature;humidity
67052;BME280;53957;47.222;18.670;2023-01-31T00:02:12;99939.34;;;3.10;100.00
67052;BME280;53957;47.222;18.670;2023-01-31T00:05:15;99947.72;;;3.07;100.00
67052;BME280;53957;47.222;18.670;2023-01-31T00:08:19;99932.37;;;2.87;100.00
67052;BME280;53957;47.222;18.670;2023-01-31T00:11:24;99946.56;;;2.86;100.00
67052;BME280;53957;47.222;18.670;2023-01-31T00:14:27;99953.69;;;2.85;100.00
67052;BME280;53957;47.222;18.670;2023-01-31T00:17:30;99955.28;;;2.86;100.00
67052;BME280;53957;47.222;18.670;2023-01-31T00:20:34;99947.69;;;2.73;100.00
67052;BME280;53957;47.222;18.670;2023-01-31T00:23:38;99944.03;;;2.91;100.00
67052;BME280;53957;47.222;18.670;2023-01-31T00:26:41;99941.47;;;2.96;100.00
67052;BME280;53957;47.222;18.670;2023-01-31T00:29:44;99940.03;;;2.88;100.00
67052;BME280;53957;47.222;18.670;2023-01-31T00:32:49;99952.75;;;2.92;100.00
67052;BME280;53957;47.222;18.670;2023-01-31T00:35:52;99943.06;;;2.97;100.00
67052;BME280;53957;47.222;18.670;2023-01-31T00:38:57;99937.66;;;2.87;100.00
67052;BME280;53957;47.222;18.670;2023-01-31T00:42:00;99946.25;;;2.82;100.00
67052;BME280;53957;47.222;18.670;2023-01-31T00:45:03;99948.97;;;2.87;100.00
67052;BME280;53957;47.222;18.670;2023-01-31T00:48:07;99944.59;;;2.93;100.00
67052;BME280;53957;47.222;18.670;2023-01-31T00:51:10;99936.81;;;2.86;100.00
67052;BME280;53957;47.222;18.670;2023-01-31T00:54:13;99925.34;;;2.93;100.00
67052;BME280;53957;47.222;18.670;2023-01-31T00:57:15;99944.34;;;2.95;100.00
67052;BME280;53957;47.222;18.670;2023-01-31T01:00:19;99929.97;;;3.02;100.00
67052;BME280;53957;47.222;18.670;2023-01-31T01:03:23;99953.91;;;2.84;100.00
67052;BME280;53957;47.222;18.670;2023-01-31T01:06:26;99956.31;;;2.85;100.00
67052;BME280;53957;47.222;18.670;2023-01-31T01:09:29;99949.59;;;2.78;100.00
67052;BME280;53957;47.222;18.670;2023-01-31T01:12:32;99948.75;;;2.89;100.00
67052;BME280;53957;47.222;18.670;2023-01-31T01:15:48;99943.62;;;2.82;100.00
67052;BME280;53957;47.222;18.670;2023-01-31T01:18:52;99944.00;;;2.74;100.00
67052;BME280;53957;47.222;18.670;2023-01-31T01:21:58;99957.66;;;2.71;100.00
67052;BME280;53957;47.222;18.670;2023-01-31T01:25:02;99949.69;;;2.83;100.00
67052;BME280;53957;47.222;18.670;2023-01-31T01:28:04;99950.72;;;2.82;100.00
67052;BME280;53957;47.222;18.670;2023-01-31T01:31:09;99944.81;;;2.74;100.00
67052;BME280;53957;47.222;18.670;2023-01-31T01:34:15;99965.06;;;2.74;100.00
67052;BME280;53957;47.222;18.670;2023-01-31T01:37:19;99956.13;;;2.75;100.00
67052;BME280;53957;47.222;18.670;2023-01-31T01:40:22;99956.47;;;2.79;100.00
67052;BME280;53957;47.222;18.670;2023-01-31T01:46:53;99970.34;;;2.74;100.00
67052;BME280;53957;47.222;18.670;2023-01-31T01:50:08;99975.12;;;2.77;100.00
67052;BME280;53957;47.222;18.670;2023-01-31T01:53:19;99968.09;;;2.66;100.00
67052;BME280;53957;47.222;18.670;2023-01-31T01:56:28;99984.84;;;2.60;100.00
67052;BME280;53957;47.222;18.670;2023-01-31T01:59:38;99993.69;;;2.53;100.00
67052;BME280;53957;47.222;18.670;2023-01-31T02:02:45;99988.03;;;2.62;100.00
67052;BME280;53957;47.222;18.670;2023-01-31T02:05:52;100000.06;;;2.57;100.00
67052;BME280;53957;47.222;18.670;2023-01-31T02:08:56;100001.75;;;2.64;100.00
67052;BME280;53957;47.222;18.670;2023-01-31T02:12:00;100005.63;;;2.73;100.00
67052;BME280;53957;47.222;18.670;2023-01-31T02:15:04;99999.38;;;2.62;100.00
67052;BME280;53957;47.222;18.670;2023-01-31T02:18:08;99991.03;;;2.53;100.00
67052;BME280;53957;47.222;18.670;2023-01-31T02:32:10;99999.16;;;2.52;100.00
67052;BME280;53957;47.222;18.670;2023-01-31T02:45:04;100011.50;;;2.63;100.00
67052;BME280;53957;47.222;18.670;2023-01-31T02:51:37;100004.97;;;2.66;100.00
67052;BME280;53957;47.222;18.670;2023-01-31T02:54:51;100025.69;;;2.62;100.00
67052;BME280;53957;47.222;18.670;2023-01-31T02:58:16;100032.16;;;2.54;100.00
67052;BME280;53957;47.222;18.670;2023-01-31T03:01:27;100027.19;;;2.58;100.00
67052;BME280;53957;47.222;18.670;2023-01-31T03:04:33;100050.63;;;2.71;100.00
67052;BME280;53957;47.222;18.670;2023-01-31T03:07:40;100044.06;;;2.74;100.00
67052;BME280;53957;47.222;18.670;2023-01-31T03:17:43;100046.34;;;2.82;100.00
67052;BME280;53957;47.222;18.670;2023-01-31T03:20:59;100046.63;;;2.69;100.00
67052;BME280;53957;47.222;18.670;2023-01-31T03:24:05;100045.59;;;2.70;100.00
67052;BME280;53957;47.222;18.670;2023-01-31T03:27:10;100039.38;;;2.76;100.00
67052;BME280;53957;47.222;18.670;2023-01-31T03:30:17;100052.59;;;2.64;100.00
67052;BME280;53957;47.222;18.670;2023-01-31T03:33:28;100057.31;;;2.62;100.00
67052;BME280;53957;47.222;18.670;2023-01-31T03:43:41;100074.44;;;2.77;100.00
67052;BME280;53957;47.222;18.670;2023-01-31T03:46:50;100083.81;;;2.84;100.00
67052;BME280;53957;47.222;18.670;2023-01-31T03:49:58;100071.91;;;2.82;100.00
67052;BME280;53957;47.222;18.670;2023-01-31T03:56:24;100077.28;;;2.75;100.00
67052;BME280;53957;47.222;18.670;2023-01-31T03:59:35;100081.44;;;2.71;100.00
67052;BME280;53957;47.222;18.670;2023-01-31T04:02:39;100081.88;;;2.68;100.00
67052;BME280;53957;47.222;18.670;2023-01-31T04:05:43;100083.97;;;2.66;100.00
67052;BME280;53957;47.222;18.670;2023-01-31T04:08:47;100080.91;;;2.57;100.00
67052;BME280;53957;47.222;18.670;2023-01-31T04:11:51;100073.22;;;2.55;100.00
67052;BME280;53957;47.222;18.670;2023-01-31T04:14:54;100076.41;;;2.57;100.00
67052;BME280;53957;47.222;18.670;2023-01-31T04:17:57;100082.28;;;2.48;100.00
67052;BME280;53957;47.222;18.670;2023-01-31T04:21:00;100073.50;;;2.42;100.00
67052;BME280;53957;47.222;18.670;2023-01-31T04:24:03;100080.13;;;2.33;100.00
67052;BME280;53957;47.222;18.670;2023-01-31T04:27:07;100082.31;;;2.36;100.00
67052;BME280;53957;47.222;18.670;2023-01-31T04:30:10;100085.16;;;2.46;100.00
67052;BME280;53957;47.222;18.670;2023-01-31T04:33:13;100088.22;;;2.43;100.00
67052;BME280;53957;47.222;18.670;2023-01-31T04:36:16;100096.12;;;2.43;100.00
67052;BME280;53957;47.222;18.670;2023-01-31T04:39:19;100092.94;;;2.17;100.00
67052;BME280;53957;47.222;18.670;2023-01-31T04:42:22;100107.16;;;2.16;100.00
67052;BME280;53957;47.222;18.670;2023-01-31T04:45:25;100119.25;;;1.93;100.00
67052;BME280;53957;47.222;18.670;2023-01-31T04:48:29;100117.19;;;1.72;100.00
67052;BME280;53957;47.222;18.670;2023-01-31T04:51:32;100099.53;;;1.60;100.00
67052;BME280;53957;47.222;18.670;2023-01-31T04:54:35;100107.16;;;1.50;100.00
67052;BME280;53957;47.222;18.670;2023-01-31T04:57:41;100087.56;;;1.22;100.00
67052;BME280;53957;47.222;18.670;2023-01-31T05:00:45;100093.03;;;1.21;100.00
67052;BME280;53957;47.222;18.670;2023-01-31T05:03:48;100098.56;;;1.31;100.00
67052;BME280;53957;47.222;18.670;2023-01-31T05:06:51;100093.72;;;1.16;100.00
67052;BME280;53957;47.222;18.670;2023-01-31T05:09:54;100093.19;;;1.38;100.00
67052;BME280;53957;47.222;18.670;2023-01-31T05:12:58;100103.66;;;1.26;100.00
67052;BME280;53957;47.222;18.670;2023-01-31T05:16:21;100104.84;;;1.30;100.00
67052;BME280;53957;47.222;18.670;2023-01-31T05:19:24;100103.59;;;1.33;100.00
67052;BME280;53957;47.222;18.670;2023-01-31T05:22:27;100113.38;;;1.25;100.00
67052;BME280;53957;47.222;18.670;2023-01-31T05:25:31;100118.87;;;1.24;100.00
67052;BME280;53957;47.222;18.670;2023-01-31T05:28:34;100142.94;;;1.21;100.00
67052;BME280;53957;47.222;18.670;2023-01-31T05:31:38;100153.16;;;1.29;100.00
67052;BME280;53957;47.222;18.670;2023-01-31T05:34:41;100154.41;;;1.26;100.00
67052;BME280;53957;47.222;18.670;2023-01-31T05:37:44;100158.19;;;1.31;100.00
67052;BME280;53957;47.222;18.670;2023-01-31T05:40:49;100160.03;;;1.42;100.00
67052;BME280;53957;47.222;18.670;2023-01-31T05:43:52;100157.00;;;1.45;100.00
67052;BME280;53957;47.222;18.670;2023-01-31T05:46:55;100170.50;;;1.49;100.00
67052;BME280;53957;47.222;18.670;2023-01-31T05:49:58;100167.62;;;1.50;100.00
67052;BME280;53957;47.222;18.670;2023-01-31T05:53:01;100171.75;;;1.46;100.00
67052;BME280;53957;47.222;18.670;2023-01-31T05:56:05;100172.72;;;1.64;100.00
67052;BME280;53957;47.222;18.670;2023-01-31T05:59:08;100180.81;;;1.62;100.00
67052;BME280;53957;47.222;18.670;2023-01-31T06:02:12;100189.84;;;1.66;100.00
67052;BME280;53957;47.222;18.670;2023-01-31T06:05:16;100196.50;;;1.69;100.00
67052;BME280;53957;47.222;18.670;2023-01-31T06:08:20;100204.44;;;1.81;100.00
67052;BME280;53957;47.222;18.670;2023-01-31T06:11:23;100205.69;;;1.78;100.00
67052;BME280;53957;47.222;18.670;2023-01-31T06:14:27;100215.75;;;1.81;100.00
67052;BME280;53957;47.222;18.670;2023-01-31T06:17:30;100214.38;;;1.79;100.00
67052;BME280;53957;47.222;18.670;2023-01-31T06:20:33;100219.25;;;1.75;100.00
67052;BME280;53957;47.222;18.670;2023-01-31T06:23:37;100219.09;;;1.88;100.00
67052;BME280;53957;47.222;18.670;2023-01-31T06:26:41;100223.19;;;1.84;100.00
67052;BME280;53957;47.222;18.670;2023-01-31T06:29:45;100230.06;;;1.85;100.00
67052;BME280;53957;47.222;18.670;2023-01-31T06:32:48;100235.41;;;1.79;100.00
67052;BME280;53957;47.222;18.670;2023-01-31T06:35:51;100260.03;;;1.84;100.00
67052;BME280;53957;47.222;18.670;2023-01-31T06:38:54;100261.16;;;1.88;100.00
67052;BME280;53957;47.222;18.670;2023-01-31T06:41:57;100266.91;;;1.97;100.00
67052;BME280;53957;47.222;18.670;2023-01-31T06:45:00;100254.25;;;2.06;100.00
67052;BME280;53957;47.222;18.670;2023-01-31T06:48:04;100269.03;;;2.19;100.00
67052;BME280;53957;47.222;18.670;2023-01-31T06:51:08;100273.50;;;2.18;100.00
67052;BME280;53957;47.222;18.670;2023-01-31T06:54:12;100273.94;;;2.15;100.00
67052;BME280;53957;47.222;18.670;2023-01-31T06:57:16;100285.84;;;2.18;100.00
67052;BME280;53957;47.222;18.670;2023-01-31T07:00:20;100293.44;;;2.38;100.00
67052;BME280;53957;47.222;18.670;2023-01-31T16:10:47;100496.25;;;4.06;100.00
67052;BME280;53957;47.222;18.670;2023-01-31T16:13:53;100511.41;;;3.98;100.00
67052;BME280;53957;47.222;18.670;2023-01-31T16:16:57;100502.25;;;3.89;100.00
67052;BME280;53957;47.222;18.670;2023-01-31T16:20:01;100498.31;;;3.80;100.00
67052;BME280;53957;47.222;18.670;2023-01-31T16:23:16;100499.72;;;3.70;100.00
67052;BME280;53957;47.222;18.670;2023-01-31T16:26:31;100494.87;;;3.55;100.00
67052;BME280;53957;47.222;18.670;2023-01-31T16:29:42;100493.41;;;3.60;100.00
67052;BME280;53957;47.222;18.670;2023-01-31T16:32:47;100498.78;;;3.41;100.00
67052;BME280;53957;47.222;18.670;2023-01-31T16:36:05;100501.75;;;3.45;100.00
67052;BME280;53957;47.222;18.670;2023-01-31T16:39:44;100502.88;;;3.37;100.00
67052;BME280;53957;47.222;18.670;2023-01-31T16:43:29;100510.69;;;3.32;100.00
67052;BME280;53957;47.222;18.670;2023-01-31T16:46:39;100507.25;;;3.31;100.00
67052;BME280;53957;47.222;18.670;2023-01-31T16:49:43;100511.56;;;3.26;100.00
67052;BME280;53957;47.222;18.670;2023-01-31T16:53:26;100514.44;;;3.24;100.00
67052;BME280;53957;47.222;18.670;2023-01-31T16:57:04;100512.59;;;3.25;100.00
67052;BME280;53957;47.222;18.670;2023-01-31T17:00:37;100517.53;;;3.21;100.00
67052;BME280;53957;47.222;18.670;2023-01-31T17:04:01;100513.19;;;3.27;100.00
67052;BME280;53957;47.222;18.670;2023-01-31T17:07:19;100525.69;;;3.43;100.00
67052;BME280;53957;47.222;18.670;2023-01-31T17:10:26;100528.69;;;3.35;100.00
67052;BME280;53957;47.222;18.670;2023-01-31T17:13:49;100522.72;;;3.28;100.00
67052;BME280;53957;47.222;18.670;2023-01-31T17:17:02;100511.94;;;3.29;100.00
67052;BME280;53957;47.222;18.670;2023-01-31T17:20:13;100506.44;;;3.31;100.00
67052;BME280;53957;47.222;18.670;2023-01-31T17:23:17;100505.03;;;3.28;100.00
67052;BME280;53957;47.222;18.670;2023-01-31T17:26:22;100494.31;;;3.30;100.00
67052;BME280;53957;47.222;18.670;2023-01-31T17:29:25;100494.66;;;3.33;100.00
67052;BME280;53957;47.222;18.670;2023-01-31T17:32:58;100492.44;;;3.30;100.00
67052;BME280;53957;47.222;18.670;2023-01-31T17:36:01;100497.50;;;3.32;100.00
67052;BME280;53957;47.222;18.670;2023-01-31T17:39:05;100497.50;;;3.32;100.00
67052;BME280;53957;47.222;18.670;2023-01-31T17:42:18;100503.59;;;3.32;100.00
67052;BME280;53957;47.222;18.670;2023-01-31T17:45:24;100496.94;;;3.30;100.00
67052;BME280;53957;47.222;18.670;2023-01-31T17:48:27;100500.00;;;3.27;100.00
67052;BME280;53957;47.222;18.670;2023-01-31T17:51:32;100494.66;;;3.33;100.00
67052;BME280;53957;47.222;18.670;2023-01-31T17:54:35;100491.06;;;3.28;100.00
67052;BME280;53957;47.222;18.670;2023-01-31T17:57:39;100488.13;;;3.36;100.00
67052;BME280;53957;47.222;18.670;2023-01-31T18:00:42;100490.50;;;3.26;100.00
67052;BME280;53957;47.222;18.670;2023-01-31T18:03:49;100483.59;;;3.25;100.00
67052;BME280;53957;47.222;18.670;2023-01-31T18:06:53;100483.97;;;3.28;100.00
67052;BME280;53957;47.222;18.670;2023-01-31T18:09:56;100479.94;;;3.26;100.00
67052;BME280;53957;47.222;18.670;2023-01-31T18:12:59;100480.53;;;3.28;100.00
67052;BME280;53957;47.222;18.670;2023-01-31T18:16:14;100481.44;;;3.21;100.00
67052;BME280;53957;47.222;18.670;2023-01-31T18:19:19;100482.59;;;3.26;100.00
67052;BME280;53957;47.222;18.670;2023-01-31T18:22:23;100475.25;;;3.28;100.00
67052;BME280;53957;47.222;18.670;2023-01-31T18:25:27;100479.06;;;3.44;100.00
67052;BME280;53957;47.222;18.670;2023-01-31T18:28:33;100472.19;;;3.54;99.72
67052;BME280;53957;47.222;18.670;2023-01-31T18:31:36;100481.03;;;3.48;99.34
67052;BME280;53957;47.222;18.670;2023-01-31T18:34:40;100474.84;;;3.54;96.90
67052;BME280;53957;47.222;18.670;2023-01-31T18:37:43;100484.22;;;3.50;97.54
67052;BME280;53957;47.222;18.670;2023-01-31T18:40:46;100474.84;;;3.54;96.86
67052;BME280;53957;47.222;18.670;2023-01-31T18:43:51;100475.38;;;3.57;97.26
67052;BME280;53957;47.222;18.670;2023-01-31T18:46:55;100476.28;;;3.50;98.17
67052;BME280;53957;47.222;18.670;2023-01-31T18:49:58;100466.91;;;3.54;98.98
67052;BME280;53957;47.222;18.670;2023-01-31T18:53:02;100481.00;;;3.60;98.46
67052;BME280;53957;47.222;18.670;2023-01-31T18:56:08;100478.38;;;3.48;97.49
67052;BME280;53957;47.222;18.670;2023-01-31T18:59:12;100471.16;;;3.44;97.88
67052;BME280;53957;47.222;18.670;2023-01-31T19:02:16;100464.13;;;3.49;95.67
67052;BME280;53957;47.222;18.670;2023-01-31T19:05:20;100472.75;;;3.57;96.69
67052;BME280;53957;47.222;18.670;2023-01-31T19:08:24;100480.53;;;3.75;94.13
67052;BME280;53957;47.222;18.670;2023-01-31T19:11:28;100474.72;;;3.73;94.90
67052;BME280;53957;47.222;18.670;2023-01-31T19:14:31;100478.38;;;3.60;94.98
67052;BME280;53957;47.222;18.670;2023-01-31T19:17:35;100481.25;;;3.70;93.60
67052;BME280;53957;47.222;18.670;2023-01-31T19:20:38;100489.84;;;3.66;94.18
67052;BME280;53957;47.222;18.670;2023-01-31T19:23:42;100499.16;;;3.80;92.98
67052;BME280;53957;47.222;18.670;2023-01-31T19:26:46;100495.81;;;3.61;94.19
67052;BME280;53957;47.222;18.670;2023-01-31T19:29:50;100501.66;;;3.63;94.18
67052;BME280;53957;47.222;18.670;2023-01-31T19:32:53;100479.62;;;3.81;92.72
67052;BME280;53957;47.222;18.670;2023-01-31T19:35:57;100490.84;;;3.89;91.63
67052;BME280;53957;47.222;18.670;2023-01-31T19:39:02;100501.41;;;3.89;92.16
67052;BME280;53957;47.222;18.670;2023-01-31T19:42:08;100489.72;;;3.84;93.57
67052;BME280;53957;47.222;18.670;2023-01-31T19:45:11;100498.31;;;3.80;95.34
67052;BME280;53957;47.222;18.670;2023-01-31T19:48:27;100491.34;;;3.85;94.06
67052;BME280;53957;47.222;18.670;2023-01-31T19:52:06;100506.25;;;3.80;96.92
67052;BME280;53957;47.222;18.670;2023-01-31T19:55:31;100519.78;;;3.60;100.00
67052;BME280;53957;47.222;18.670;2023-01-31T19:58:35;100517.88;;;3.25;100.00
67052;BME280;53957;47.222;18.670;2023-01-31T20:02:00;100511.53;;;3.02;100.00
67052;BME280;53957;47.222;18.670;2023-01-31T22:07:16;100389.97;;;1.76;100.00
67052;BME280;53957;47.222;18.670;2023-01-31T22:10:20;100394.19;;;1.96;100.00
67052;BME280;53957;47.222;18.670;2023-01-31T22:13:23;100390.34;;;1.80;100.00
67052;BME280;53957;47.222;18.670;2023-01-31T22:16:27;100384.75;;;2.07;100.00
67052;BME280;53957;47.222;18.670;2023-01-31T22:19:30;100371.25;;;2.03;100.00
67052;BME280;53957;47.222;18.670;2023-01-31T22:22:33;100378.03;;;2.11;100.00
67052;BME280;53957;47.222;18.670;2023-01-31T22:25:36;100369.47;;;2.16;100.00
67052;BME280;53957;47.222;18.670;2023-01-31T22:28:39;100367.91;;;2.27;100.00
67052;BME280;53957;47.222;18.670;2023-01-31T22:31:43;100358.19;;;2.27;100.00
67052;BME280;53957;47.222;18.670;2023-01-31T22:34:46;100360.03;;;2.27;100.00
67052;BME280;53957;47.222;18.670;2023-01-31T22:37:49;100359.37;;;2.43;100.00
67052;BME280;53957;47.222;18.670;2023-01-31T22:41:00;100345.72;;;2.22;100.00
67052;BME280;53957;47.222;18.670;2023-01-31T22:44:03;100355.13;;;2.30;100.00
67052;BME280;53957;47.222;18.670;2023-01-31T22:47:06;100354.69;;;2.45;100.00
67052;BME280;53957;47.222;18.670;2023-01-31T22:50:09;100357.59;;;2.55;100.00
67052;BME280;53957;47.222;18.670;2023-01-31T22:53:12;100359.78;;;2.58;100.00
67052;BME280;53957;47.222;18.670;2023-01-31T22:56:20;100369.72;;;2.56;100.00
67052;BME280;53957;47.222;18.670;2023-01-31T22:59:23;100367.38;;;2.67;100.00
67052;BME280;53957;47.222;18.670;2023-01-31T23:02:32;100365.28;;;2.69;100.00
67052;BME280;53957;47.222;18.670;2023-01-31T23:05:39;100359.47;;;2.67;100.00
67052;BME280;53957;47.222;18.670;2023-01-31T23:08:44;100360.06;;;2.81;100.00
67052;BME280;53957;47.222;18.670;2023-01-31T23:11:47;100359.94;;;2.76;100.00
67052;BME280;53957;47.222;18.670;2023-01-31T23:14:50;100359.22;;;2.80;100.00
67052;BME280;53957;47.222;18.670;2023-01-31T23:17:53;100350.78;;;2.78;100.00
67052;BME280;53957;47.222;18.670;2023-01-31T23:21:28;100355.81;;;2.80;100.00
67052;BME280;53957;47.222;18.670;2023-01-31T23:24:33;100347.12;;;2.79;100.00
67052;BME280;53957;47.222;18.670;2023-01-31T23:27:37;100344.00;;;2.82;100.00
67052;BME280;53957;47.222;18.670;2023-01-31T23:30:40;100337.72;;;2.83;100.00
67052;BME280;53957;47.222;18.670;2023-01-31T23:33:48;100337.94;;;2.94;100.00
67052;BME280;53957;47.222;18.670;2023-01-31T23:36:51;100338.97;;;2.93;100.00
67052;BME280;53957;47.222;18.670;2023-01-31T23:39:54;100336.59;;;3.03;100.00
67052;BME280;53957;47.222;18.670;2023-01-31T23:42:58;100335.75;;;3.02;100.00
67052;BME280;53957;47.222;18.670;2023-01-31T23:46:01;100336.59;;;3.03;100.00
67052;BME280;53957;47.222;18.670;2023-01-31T23:49:05;100332.56;;;3.00;100.00
67052;BME280;53957;47.222;18.670;2023-01-31T23:52:08;100326.81;;;3.03;100.00
67052;BME280;53957;47.222;18.670;2023-01-31T23:55:11;100328.69;;;3.03;100.00
67052;BME280;53957;47.222;18.670;2023-01-31T23:58:14;100316.28;;;3.15;100.00
